This is the latest recevied weather packets stored in our database for station/object DL1GHN-6. If no packets are shown the sender has not sent any weather packets the latest 1 day(s).
| Time | Temp. | Humidity | Pressure | Rain* | Wind** | Luminosity | Snow |
|---|---|---|---|---|---|---|---|
| 1778085885 | 12.22° C | 86% | 1008.2 hPa | 0.25 mm | - | 53 W/m² | - |
| 1778085584 | 12.22° C | 86% | 1008.3 hPa | 0.25 mm | - | 49 W/m² | - |
| 1778085284 | 12.22° C | 86% | 1008.2 hPa | 0.25 mm | - | 49 W/m² | - |
| 1778084685 | 12.22° C | 86% | 1008.2 hPa | 0 mm | - | 51 W/m² | - |
| 1778082884 | 12.78° C | 86% | 1008.2 hPa | 0.25 mm | - | 79 W/m² | - |
| 1778081684 | 12.78° C | 86% | 1008.1 hPa | 0.51 mm | - | 56 W/m² | - |
| 1778081384 | 12.78° C | 86% | 1008.1 hPa | 0.51 mm | - | 63 W/m² | - |
| 1778080785 | 12.78° C | 87% | 1008 hPa | 0.51 mm | - | 90 W/m² | - |
| 1778080485 | 12.78° C | 87% | 1008 hPa | 0.51 mm | - | 86 W/m² | - |
| 1778080185 | 12.78° C | 87% | 1008 hPa | 0.51 mm | - | 77 W/m² | - |
| 1778079884 | 12.78° C | 87% | 1008 hPa | 0.51 mm | - | 77 W/m² | - |
| 1778076884 | 13.89° C | 80% | 1007.6 hPa | 0 mm | - | 14 W/m² | - |
| 1778076285 | 14.44° C | 79% | 1007.2 hPa | 0.51 mm | - | 11 W/m² | - |
| 1778075984 | 14.44° C | 79% | 1007.1 hPa | 0.51 mm | - | 44 W/m² | - |
| 1778075684 | 14.44° C | 79% | 1007 hPa | 0.51 mm | - | 42 W/m² | - |
| 1778075384 | 14.44° C | 82% | 1007 hPa | 0.76 mm | - | 51 W/m² | - |
| 1778075084 | 14.44° C | 84% | 1007 hPa | 0.76 mm | - | 40 W/m² | - |
| 1778074784 | 14.44° C | 84% | 1007 hPa | 0.76 mm | - | 33 W/m² | - |
| 1778074484 | 14.44° C | 84% | 1007 hPa | 0.76 mm | - | 32 W/m² | - |
| 1778074184 | 14.44° C | 83% | 1007 hPa | 0.76 mm | - | 37 W/m² | - |
| 1778073885 | 14.44° C | 83% | 1006.9 hPa | 0.76 mm | - | 30 W/m² | - |
| 1778073585 | 14.44° C | 83% | 1006.8 hPa | 0.76 mm | - | 63 W/m² | - |
| 1778072984 | 14.44° C | 83% | 1006.7 hPa | 0.51 mm | - | 63 W/m² | - |
| 1778072384 | 15° C | 80% | 1006.7 hPa | 0.25 mm | - | 46 W/m² | - |
| 1778071485 | 15.56° C | 79% | 1006.5 hPa | 0 mm | - | 105 W/m² | - |
* Rain latest hour (hover to see other rain measurements)
** Current wind speed in m/s (hover to see current wind gust speed)